Time;durP1;ratioP1;P1;durP2;ratioP2;P2;SDS_P1;SDS_P2;PMS_P1;PMS_P2;Temp;Humidity;BMP_temperature;BMP_pressure;BME280_temperature;BME280_humidity;BME280_pressure;Samples;Min_cycle;Max_cycle;Signal;HPM_P1;HPM_P2
2021/01/15 00:02:02;;;;;;;9.87;5.43;;;-3.50;99.90;;;;;;5017485;28;20203;-74
2021/01/15 00:04:31;;;;;;;7.40;4.63;;;-3.50;99.90;;;;;;5018043;28;20208;-74
2021/01/15 00:07:04;;;;;;;10.40;5.43;;;-3.60;99.90;;;;;;5014769;28;20220;-73
2021/01/15 00:09:31;;;;;;;11.20;5.10;;;-3.60;99.90;;;;;;5016482;28;20678;-74
2021/01/15 00:11:57;;;;;;;8.20;5.33;;;-3.60;99.90;;;;;;5015592;28;20242;-73
2021/01/15 00:14:24;;;;;;;7.30;4.87;;;-3.70;99.90;;;;;;5010814;28;20294;-74
2021/01/15 00:16:52;;;;;;;9.13;4.73;;;-3.70;99.90;;;;;;5015052;28;20257;-73
2021/01/15 00:19:19;;;;;;;9.43;5.23;;;-3.80;99.90;;;;;;5018101;28;20560;-73
2021/01/15 00:21:49;;;;;;;7.90;5.10;;;-3.90;99.90;;;;;;5017835;28;20291;-73
2021/01/15 00:24:17;;;;;;;9.17;5.40;;;-4.00;99.90;;;;;;5009118;28;20304;-73
2021/01/15 00:26:44;;;;;;;9.23;5.57;;;-4.10;99.90;;;;;;5018328;28;20210;-73
2021/01/15 00:29:11;;;;;;;8.47;4.87;;;-4.10;99.90;;;;;;5016950;28;20207;-72
2021/01/15 00:31:40;;;;;;;10.47;5.47;;;-4.20;99.90;;;;;;5012784;28;20211;-73
2021/01/15 00:34:09;;;;;;;7.87;4.90;;;-4.20;99.90;;;;;;5010615;28;20726;-74
2021/01/15 00:36:36;;;;;;;7.60;4.87;;;-4.30;99.90;;;;;;5009915;28;20204;-73
2021/01/15 00:39:06;;;;;;;10.33;6.00;;;-4.40;99.90;;;;;;5017308;28;20302;-73
2021/01/15 00:41:36;;;;;;;10.93;5.47;;;-4.50;99.90;;;;;;5013910;28;20725;-73
2021/01/15 00:44:03;;;;;;;12.47;5.57;;;-4.50;99.90;;;;;;5013478;28;20294;-74
2021/01/15 00:46:33;;;;;;;10.13;5.17;;;-4.60;99.90;;;;;;5019702;28;20204;-74
2021/01/15 00:49:02;;;;;;;8.70;5.13;;;-4.70;99.90;;;;;;5012439;28;20288;-73
2021/01/15 00:51:30;;;;;;;9.10;4.90;;;-4.80;99.90;;;;;;5015114;28;20211;-73
2021/01/15 00:53:56;;;;;;;10.73;5.23;;;-4.80;99.90;;;;;;5018824;28;20564;-73
2021/01/15 00:56:24;;;;;;;9.63;5.03;;;-4.90;99.90;;;;;;5012704;28;20206;-73
2021/01/15 00:58:51;;;;;;;9.03;5.23;;;-5.00;99.90;;;;;;5012969;28;20266;-72
2021/01/15 01:01:19;;;;;;;8.00;5.20;;;-5.10;99.90;;;;;;5017598;28;20278;-72
2021/01/15 01:03:48;;;;;;;9.80;5.43;;;-5.10;99.90;;;;;;5015366;28;20203;-73
2021/01/15 01:06:16;;;;;;;8.27;4.70;;;-5.20;99.90;;;;;;5014753;28;20243;-73
2021/01/15 01:08:44;;;;;;;8.20;4.73;;;-5.20;99.90;;;;;;5006813;28;20212;-72
2021/01/15 01:11:11;;;;;;;10.07;4.93;;;-5.30;99.90;;;;;;5012154;28;20358;-73
2021/01/15 01:13:39;;;;;;;10.03;4.87;;;-5.30;99.90;;;;;;5017790;28;20342;-73
2021/01/15 01:16:06;;;;;;;8.90;4.90;;;-5.30;99.90;;;;;;5008728;28;20269;-73
2021/01/15 01:18:34;;;;;;;8.73;4.93;;;-5.40;99.90;;;;;;5010394;28;20728;-74
2021/01/15 01:21:00;;;;;;;7.80;4.63;;;-5.40;99.90;;;;;;5018398;28;20222;-73
2021/01/15 01:23:27;;;;;;;7.83;5.10;;;-5.40;99.90;;;;;;5016518;28;20256;-73
2021/01/15 01:25:53;;;;;;;10.53;5.40;;;-5.40;99.90;;;;;;5007515;28;20570;-73
2021/01/15 01:28:19;;;;;;;7.90;4.67;;;-5.30;99.90;;;;;;5014757;28;20290;-73
2021/01/15 01:30:47;;;;;;;10.13;5.53;;;-5.40;99.90;;;;;;5016350;28;20200;-73
2021/01/15 01:33:13;;;;;;;10.83;5.60;;;-5.40;99.90;;;;;;5015716;28;20330;-73
2021/01/15 01:35:39;;;;;;;10.37;6.07;;;-5.30;99.90;;;;;;5012470;28;20239;-73
2021/01/15 01:38:06;;;;;;;11.97;5.93;;;-5.30;99.90;;;;;;5013721;28;20225;-73
2021/01/15 01:40:32;;;;;;;9.63;5.40;;;-5.30;99.90;;;;;;5016014;28;20215;-73
2021/01/15 01:42:59;;;;;;;9.77;5.47;;;-5.30;99.90;;;;;;5014110;28;20558;-73
2021/01/15 01:45:25;;;;;;;8.33;5.00;;;-5.20;99.90;;;;;;5009713;28;20636;-74
2021/01/15 01:47:53;;;;;;;7.90;5.17;;;-5.20;99.90;;;;;;5018735;28;20298;-72
2021/01/15 01:50:20;;;;;;;7.17;4.77;;;-5.20;99.90;;;;;;5013643;28;20649;-73
2021/01/15 01:52:47;;;;;;;7.23;5.00;;;-5.10;99.90;;;;;;5016266;28;20207;-72
2021/01/15 01:55:14;;;;;;;8.43;4.00;;;-5.10;99.90;;;;;;5011943;28;20214;-72
2021/01/15 01:57:41;;;;;;;6.60;4.47;;;-5.10;99.90;;;;;;5017367;28;20735;-72
2021/01/15 02:00:09;;;;;;;6.67;4.20;;;-5.00;99.90;;;;;;5013829;28;20668;-73
2021/01/15 02:02:36;;;;;;;9.83;5.00;;;-5.00;99.90;;;;;;5014968;28;20232;-73
2021/01/15 02:05:04;;;;;;;13.10;5.47;;;-5.10;99.90;;;;;;5044748;28;20229;-72
2021/01/15 02:07:31;;;;;;;8.73;5.07;;;-5.00;99.90;;;;;;5011019;28;20218;-72
2021/01/15 02:10:04;;;;;;;7.87;3.90;;;-5.00;99.90;;;;;;5010457;28;20297;-72
2021/01/15 02:12:39;;;;;;;9.90;4.83;;;-5.00;99.90;;;;;;5013843;28;20223;-73
2021/01/15 02:15:13;;;;;;;10.17;5.30;;;-5.00;99.90;;;;;;5015875;28;20687;-73
2021/01/15 02:17:48;;;;;;;8.43;5.43;;;-5.00;99.90;;;;;;5016470;28;20270;-72
2021/01/15 02:20:30;;;;;;;11.67;4.97;;;-5.00;99.90;;;;;;5011857;28;20206;-74
2021/01/15 02:23:09;;;;;;;7.13;5.00;;;-5.00;99.90;;;;;;5017550;28;20220;-72
2021/01/15 02:26:07;;;;;;;8.40;5.43;;;-5.00;99.90;;;;;;5014867;28;20217;-72
2021/01/15 02:29:01;;;;;;;10.70;5.23;;;-4.90;99.90;;;;;;5018315;28;20578;-75
2021/01/15 02:32:09;;;;;;;10.03;5.37;;;-4.90;99.90;;;;;;5012352;28;20722;-72
2021/01/15 02:34:53;;;;;;;9.47;5.00;;;-4.90;99.90;;;;;;5009288;28;20788;-74
2021/01/15 02:37:24;;;;;;;9.20;5.17;;;-4.90;99.90;;;;;;5014539;28;20199;-73
2021/01/15 02:40:04;;;;;;;9.40;5.10;;;-4.90;99.90;;;;;;5011486;28;20282;-73
2021/01/15 02:42:35;;;;;;;8.80;4.73;;;-4.80;99.90;;;;;;5017522;28;20596;-72
2021/01/15 02:45:04;;;;;;;8.67;5.03;;;-4.80;99.90;;;;;;5014809;28;20579;-72
2021/01/15 02:47:47;;;;;;;8.43;4.90;;;-4.80;99.90;;;;;;5014310;28;20203;-74
2021/01/15 02:50:15;;;;;;;9.60;5.03;;;-4.70;99.90;;;;;;5013654;28;20269;-72
2021/01/15 02:52:42;;;;;;;9.00;5.13;;;-4.70;99.90;;;;;;5018439;28;20210;-73
2021/01/15 02:55:10;;;;;;;8.77;5.33;;;-4.70;99.90;;;;;;5015439;28;20238;-72
2021/01/15 02:57:37;;;;;;;8.60;4.97;;;-4.70;99.90;;;;;;5009469;28;20658;-72
2021/01/15 03:00:06;;;;;;;9.20;5.00;;;-4.60;99.90;;;;;;5014573;28;20583;-71
2021/01/15 03:02:42;;;;;;;8.07;4.50;;;-4.60;99.90;;;;;;5011941;28;20207;-73
2021/01/15 03:05:13;;;;;;;9.97;4.77;;;-4.60;99.90;;;;;;5015694;28;20326;-73
2021/01/15 03:07:43;;;;;;;7.93;4.80;;;-4.60;99.90;;;;;;5007860;28;20284;-72
2021/01/15 03:10:11;;;;;;;10.77;5.40;;;-4.60;99.90;;;;;;5013192;28;20208;-73
2021/01/15 03:12:41;;;;;;;9.23;4.63;;;-4.50;99.90;;;;;;5010598;28;20259;-72
2021/01/15 03:15:09;;;;;;;9.90;5.17;;;-4.50;99.90;;;;;;5010830;28;20598;-73
2021/01/15 03:17:40;;;;;;;11.63;5.23;;;-4.50;99.90;;;;;;5015908;28;20285;-73
2021/01/15 03:20:09;;;;;;;12.20;5.67;;;-4.50;99.90;;;;;;5010992;28;20207;-72
2021/01/15 03:22:38;;;;;;;12.17;5.60;;;-4.60;99.90;;;;;;5018344;28;20730;-72
2021/01/15 03:25:07;;;;;;;9.27;5.07;;;-4.70;99.90;;;;;;5013383;28;20203;-72
2021/01/15 03:27:43;;;;;;;9.50;5.80;;;-4.70;99.90;;;;;;5008654;28;20204;-72
2021/01/15 03:30:10;;;;;;;10.20;5.40;;;-4.70;99.90;;;;;;5012831;28;20261;-72
2021/01/15 03:32:37;;;;;;;11.23;5.80;;;-4.70;99.90;;;;;;5018393;28;20294;-73
2021/01/15 03:35:05;;;;;;;8.43;4.90;;;-4.70;99.90;;;;;;5020447;28;20318;-72
2021/01/15 03:37:32;;;;;;;12.33;5.67;;;-4.70;99.90;;;;;;5016184;28;20212;-73
2021/01/15 03:39:58;;;;;;;9.60;4.93;;;-4.70;99.90;;;;;;5015059;28;20231;-72
2021/01/15 03:42:26;;;;;;;9.63;5.10;;;-4.80;99.90;;;;;;5017098;28;20211;-74
2021/01/15 03:44:52;;;;;;;11.47;5.30;;;-4.80;99.90;;;;;;5023156;28;20203;-73
2021/01/15 03:47:18;;;;;;;10.97;5.80;;;-4.70;99.90;;;;;;5020718;28;20220;-72
2021/01/15 03:49:45;;;;;;;11.03;5.93;;;-4.80;99.90;;;;;;5015500;28;20298;-72
2021/01/15 03:52:11;;;;;;;11.00;6.10;;;-4.70;99.90;;;;;;5015309;28;20300;-72
2021/01/15 03:54:38;;;;;;;9.23;5.03;;;-4.80;99.90;;;;;;5018739;28;20223;-73
2021/01/15 03:57:05;;;;;;;9.87;5.80;;;-4.80;99.90;;;;;;5018997;28;20630;-73
2021/01/15 03:59:32;;;;;;;10.57;5.57;;;-4.70;99.90;;;;;;5019526;28;20210;-73
2021/01/15 04:01:58;;;;;;;9.80;4.83;;;-4.80;99.90;;;;;;5015385;28;20216;-73
2021/01/15 04:04:24;;;;;;;9.33;5.10;;;-4.80;99.90;;;;;;5016406;28;20204;-73
2021/01/15 04:06:51;;;;;;;9.60;5.03;;;-4.80;99.90;;;;;;5021222;28;20319;-73
2021/01/15 04:09:17;;;;;;;9.43;5.10;;;-4.80;99.90;;;;;;5020653;28;20295;-73
2021/01/15 04:11:44;;;;;;;8.67;4.63;;;-4.80;99.90;;;;;;5014218;28;20243;-73
2021/01/15 04:14:10;;;;;;;9.07;5.23;;;-4.80;99.90;;;;;;5017459;28;20222;-73
2021/01/15 04:16:37;;;;;;;7.97;4.87;;;-4.70;99.90;;;;;;5019094;28;20204;-74
2021/01/15 04:19:04;;;;;;;9.07;5.20;;;-4.70;99.90;;;;;;5011436;28;20278;-73
2021/01/15 04:21:30;;;;;;;9.23;5.70;;;-4.70;99.90;;;;;;5014369;28;20291;-74
2021/01/15 04:23:56;;;;;;;8.13;5.17;;;-4.70;99.90;;;;;;5012355;28;20208;-73
2021/01/15 04:26:23;;;;;;;8.70;4.63;;;-4.70;99.90;;;;;;5017476;28;20629;-73
2021/01/15 04:28:50;;;;;;;11.63;5.50;;;-4.60;99.90;;;;;;5016660;28;20298;-73
2021/01/15 04:31:17;;;;;;;8.27;5.50;;;-4.70;99.90;;;;;;5016951;28;20721;-72
2021/01/15 04:33:44;;;;;;;10.47;5.23;;;-4.70;99.90;;;;;;5018170;28;20231;-72
2021/01/15 04:36:11;;;;;;;11.10;5.53;;;-4.80;99.90;;;;;;5012966;28;20695;-74
2021/01/15 04:38:39;;;;;;;8.33;5.37;;;-4.70;99.90;;;;;;5016326;28;20204;-74
2021/01/15 04:41:06;;;;;;;10.67;5.67;;;-4.70;99.90;;;;;;5019623;28;20221;-74
2021/01/15 04:43:35;;;;;;;11.17;5.27;;;-4.70;99.90;;;;;;5014742;28;20196;-73
2021/01/15 04:46:04;;;;;;;11.77;5.43;;;-4.70;99.90;;;;;;5016973;28;20286;-74
2021/01/15 04:48:32;;;;;;;11.93;6.43;;;-4.70;99.90;;;;;;5011382;28;20208;-72
2021/01/15 04:51:01;;;;;;;7.97;5.30;;;-4.70;99.90;;;;;;5023237;28;20207;-73
2021/01/15 04:53:30;;;;;;;9.10;5.63;;;-4.70;99.90;;;;;;5016321;28;20231;-73
2021/01/15 04:55:58;;;;;;;9.77;5.57;;;-4.80;99.90;;;;;;5017166;28;20266;-73
2021/01/15 04:58:26;;;;;;;11.13;6.00;;;-4.80;99.90;;;;;;5017789;28;20289;-73
2021/01/15 05:00:58;;;;;;;9.73;5.37;;;-4.80;99.90;;;;;;5020345;28;20206;-73
2021/01/15 05:03:25;;;;;;;9.63;5.07;;;-4.80;99.90;;;;;;5016498;28;20203;-72
2021/01/15 05:06:00;;;;;;;9.20;5.30;;;-4.80;99.90;;;;;;5011549;28;20704;-73
2021/01/15 05:08:28;;;;;;;8.53;4.50;;;-4.80;99.90;;;;;;5014988;28;20207;-73
2021/01/15 05:10:55;;;;;;;10.63;5.17;;;-4.80;99.90;;;;;;5016689;28;20226;-72
2021/01/15 05:13:22;;;;;;;7.60;4.50;;;-4.90;99.90;;;;;;5013604;28;20694;-73
2021/01/15 05:15:50;;;;;;;10.80;5.27;;;-4.90;99.90;;;;;;5015465;28;20211;-74
2021/01/15 05:18:18;;;;;;;10.87;6.00;;;-4.90;99.90;;;;;;5013564;28;20207;-73
2021/01/15 05:20:45;;;;;;;9.03;5.27;;;-4.90;99.90;;;;;;5018339;28;20206;-74
2021/01/15 05:23:12;;;;;;;12.63;5.87;;;-4.90;99.90;;;;;;5018412;28;20211;-72
2021/01/15 05:25:43;;;;;;;8.60;4.97;;;-5.00;99.90;;;;;;5015142;28;20207;-74
2021/01/15 05:28:10;;;;;;;8.07;4.97;;;-5.00;99.90;;;;;;5011326;28;20207;-73
2021/01/15 05:30:39;;;;;;;11.70;5.23;;;-5.00;99.90;;;;;;5014887;28;20261;-72
2021/01/15 05:33:12;;;;;;;8.63;4.93;;;-5.00;99.90;;;;;;5012468;28;20246;-72
2021/01/15 05:35:47;;;;;;;10.80;5.33;;;-5.00;99.90;;;;;;5013176;28;20210;-73
2021/01/15 05:38:16;;;;;;;10.63;6.13;;;-5.00;99.90;;;;;;5013326;28;20210;-72
2021/01/15 05:40:45;;;;;;;9.40;5.57;;;-5.00;99.90;;;;;;5018678;28;20217;-74
2021/01/15 05:43:22;;;;;;;12.50;5.40;;;-4.90;99.90;;;;;;5017774;28;20241;-76
2021/01/15 05:46:04;;;;;;;10.77;5.17;;;-4.90;99.90;;;;;;5013330;28;20707;-74
2021/01/15 05:48:31;;;;;;;11.33;5.80;;;-4.90;99.90;;;;;;5012522;28;20640;-73
2021/01/15 05:50:57;;;;;;;9.77;5.50;;;-4.80;99.90;;;;;;5013357;28;20293;-74
2021/01/15 05:53:25;;;;;;;8.13;5.47;;;-4.80;99.90;;;;;;5015779;28;20217;-74
2021/01/15 05:55:55;;;;;;;9.63;5.67;;;-4.70;99.90;;;;;;5014841;28;20219;-76
2021/01/15 05:58:21;;;;;;;9.63;5.27;;;-4.70;99.90;;;;;;5011131;28;20261;-75
2021/01/15 06:00:52;;;;;;;9.17;5.70;;;-4.60;99.90;;;;;;5008941;28;20290;-75
2021/01/15 06:03:22;;;;;;;7.70;4.43;;;-4.50;99.90;;;;;;5010586;28;20302;-75
2021/01/15 06:05:49;;;;;;;10.57;5.40;;;-4.50;99.90;;;;;;5015444;28;20601;-75
2021/01/15 06:08:16;;;;;;;12.27;5.70;;;-4.40;99.90;;;;;;5011075;28;20793;-76
2021/01/15 06:10:46;;;;;;;11.27;5.33;;;-4.30;99.90;;;;;;5017123;28;20220;-76
2021/01/15 06:13:33;;;;;;;9.43;5.20;;;-4.30;99.90;;;;;;5013393;28;20231;-75
2021/01/15 06:16:01;;;;;;;11.37;5.70;;;-4.40;99.90;;;;;;5015772;28;20201;-75
2021/01/15 06:18:27;;;;;;;9.07;5.00;;;-4.40;99.90;;;;;;5015476;28;20206;-75
2021/01/15 06:21:06;;;;;;;11.27;5.47;;;-4.50;99.90;;;;;;5011838;28;20314;-73
2021/01/15 06:23:39;;;;;;;9.20;5.10;;;-4.50;99.90;;;;;;5015358;28;20199;-73
2021/01/15 06:26:09;;;;;;;9.50;5.33;;;-4.50;99.90;;;;;;5011840;28;20255;-73
2021/01/15 06:28:38;;;;;;;11.00;5.87;;;-4.60;99.90;;;;;;5012561;28;20214;-72
2021/01/15 06:31:08;;;;;;;7.10;4.87;;;-4.60;99.90;;;;;;5010290;28;20207;-73
2021/01/15 06:33:35;;;;;;;10.23;5.60;;;-4.60;99.90;;;;;;5007910;28;20231;-73
2021/01/15 06:36:04;;;;;;;8.20;5.47;;;-4.70;99.90;;;;;;5015425;28;20206;-74
2021/01/15 06:38:31;;;;;;;9.87;5.07;;;-4.60;99.90;;;;;;5014646;28;20214;-74
2021/01/15 06:40:59;;;;;;;9.53;5.53;;;-4.70;99.90;;;;;;5010053;28;20294;-72
2021/01/15 06:43:29;;;;;;;11.37;5.40;;;-4.70;99.90;;;;;;5018953;28;20353;-72
2021/01/15 06:45:57;;;;;;;9.40;5.10;;;-4.70;99.90;;;;;;5011375;28;20211;-73
2021/01/15 06:48:24;;;;;;;8.53;5.00;;;-4.60;99.90;;;;;;5014253;28;20219;-75
2021/01/15 06:50:53;;;;;;;9.23;5.23;;;-4.60;99.90;;;;;;5006226;28;20231;-74
2021/01/15 06:53:22;;;;;;;9.57;5.47;;;-4.60;99.90;;;;;;5011902;28;20712;-75
2021/01/15 06:55:50;;;;;;;11.87;4.97;;;-4.40;99.90;;;;;;5011954;28;20712;-74
2021/01/15 06:58:22;;;;;;;9.70;5.50;;;-4.40;99.90;;;;;;5009909;28;20235;-74
2021/01/15 07:01:25;;;;;;;10.50;5.97;;;-4.40;99.90;;;;;;5014846;28;20417;-75
2021/01/15 07:04:15;;;;;;;7.90;4.83;;;-4.40;99.90;;;;;;5014763;28;20282;-74
2021/01/15 07:07:14;;;;;;;9.43;5.40;;;-4.40;99.90;;;;;;5019467;28;20254;-75
2021/01/15 07:09:43;;;;;;;9.17;5.23;;;-4.40;99.90;;;;;;5014435;28;20649;-74
2021/01/15 07:12:12;;;;;;;9.97;5.43;;;-4.40;99.90;;;;;;5016735;28;20241;-76
2021/01/15 07:14:47;;;;;;;11.90;5.10;;;-4.40;99.90;;;;;;5020783;28;20307;-72
2021/01/15 07:17:16;;;;;;;9.47;5.43;;;-4.40;99.90;;;;;;5017567;28;20214;-74
2021/01/15 07:19:44;;;;;;;10.63;6.00;;;-4.40;99.90;;;;;;5015574;28;20211;-73
2021/01/15 07:22:15;;;;;;;10.30;6.07;;;-4.50;99.90;;;;;;5020033;28;20211;-73
2021/01/15 07:24:42;;;;;;;10.53;5.67;;;-4.50;99.90;;;;;;5016314;28;20321;-71
2021/01/15 07:27:12;;;;;;;8.83;5.37;;;-4.50;99.90;;;;;;5018031;28;20270;-72
2021/01/15 07:29:44;;;;;;;12.03;6.03;;;-4.50;99.90;;;;;;5018307;28;20278;-72
2021/01/15 07:32:20;;;;;;;10.33;5.67;;;-4.40;99.90;;;;;;5018848;28;20227;-73
2021/01/15 07:34:49;;;;;;;11.57;6.37;;;-4.40;99.90;;;;;;5018420;28;20218;-73
2021/01/15 07:37:25;;;;;;;10.93;5.60;;;-4.40;99.90;;;;;;5012048;28;20211;-72
2021/01/15 07:40:10;;;;;;;10.27;5.40;;;-4.30;99.90;;;;;;5018529;28;20219;-70
2021/01/15 07:42:41;;;;;;;9.90;5.60;;;-4.30;99.90;;;;;;5019462;28;20214;-72
2021/01/15 07:45:08;;;;;;;11.73;5.93;;;-4.30;99.90;;;;;;5023306;28;20200;-72
2021/01/15 07:47:37;;;;;;;12.37;5.97;;;-4.30;99.90;;;;;;5022909;28;20652;-73
2021/01/15 07:50:06;;;;;;;10.80;5.53;;;-4.20;99.90;;;;;;5018665;28;20199;-72
2021/01/15 07:52:34;;;;;;;8.97;5.10;;;-4.20;99.90;;;;;;5024188;28;20271;-71
2021/01/15 07:55:03;;;;;;;8.57;5.70;;;-4.20;99.90;;;;;;5023308;28;20223;-72
2021/01/15 07:57:32;;;;;;;13.43;5.33;;;-4.20;99.90;;;;;;5015472;28;20216;-73
2021/01/15 08:00:23;;;;;;;12.00;6.00;;;-4.20;99.90;;;;;;5003080;28;20212;-71
2021/01/15 08:02:58;;;;;;;10.50;5.90;;;-4.20;99.90;;;;;;5013067;28;20207;-72
2021/01/15 08:05:24;;;;;;;12.03;6.33;;;-4.10;99.90;;;;;;5016451;28;20237;-73
2021/01/15 08:07:51;;;;;;;14.20;6.90;;;-4.10;99.90;;;;;;5017183;28;20620;-73
2021/01/15 08:10:24;;;;;;;13.93;7.17;;;-4.10;99.90;;;;;;5015642;28;20616;-74
2021/01/15 08:12:50;;;;;;;13.20;7.20;;;-4.00;99.90;;;;;;5017047;28;20299;-77
2021/01/15 08:15:38;;;;;;;15.37;7.17;;;-4.00;99.90;;;;;;5016050;28;20227;-72
2021/01/15 08:18:06;;;;;;;14.37;6.47;;;-4.00;99.90;;;;;;5013673;28;20242;-71
2021/01/15 08:20:32;;;;;;;13.47;7.00;;;-4.00;99.90;;;;;;5016905;28;20579;-70
2021/01/15 08:22:59;;;;;;;14.43;7.23;;;-4.00;99.90;;;;;;5016267;28;20210;-72
2021/01/15 08:25:27;;;;;;;12.63;6.83;;;-3.90;99.90;;;;;;5015510;28;20298;-73
2021/01/15 08:27:54;;;;;;;13.73;6.63;;;-3.90;99.90;;;;;;5008859;28;20250;-73
2021/01/15 08:30:21;;;;;;;14.47;6.57;;;-3.80;99.90;;;;;;5013366;28;20276;-71
2021/01/15 08:32:48;;;;;;;12.63;7.17;;;-3.80;99.90;;;;;;5016506;28;20200;-74
2021/01/15 08:35:23;;;;;;;13.00;6.63;;;-3.80;99.90;;;;;;5010879;28;20223;-72
2021/01/15 08:37:55;;;;;;;16.00;6.77;;;-3.70;99.90;;;;;;5007569;28;20203;-73
2021/01/15 08:40:29;;;;;;;12.50;7.27;;;-3.60;99.90;;;;;;5005947;28;20239;-74
2021/01/15 08:42:58;;;;;;;11.87;6.63;;;-3.50;99.90;;;;;;5011483;28;20573;-72
2021/01/15 08:45:26;;;;;;;14.23;7.30;;;-3.50;99.90;;;;;;5011898;28;20207;-75
2021/01/15 08:47:54;;;;;;;14.63;6.70;;;-3.40;99.90;;;;;;5014744;28;20236;-72
2021/01/15 08:50:21;;;;;;;12.87;6.50;;;-3.40;99.90;;;;;;5008936;28;20644;-74
2021/01/15 08:52:48;;;;;;;10.80;6.33;;;-3.30;99.90;;;;;;5008080;28;20204;-75
2021/01/15 08:55:15;;;;;;;14.77;7.80;;;-3.30;99.90;;;;;;5011146;28;20223;-77
2021/01/15 08:57:42;;;;;;;11.17;6.80;;;-3.40;99.90;;;;;;5004773;28;20373;-74
2021/01/15 09:00:09;;;;;;;10.93;6.53;;;-3.40;99.90;;;;;;5005284;28;20219;-75
2021/01/15 09:02:39;;;;;;;11.97;6.80;;;-3.40;99.90;;;;;;4997621;28;20204;-74
2021/01/15 09:05:07;;;;;;;12.23;6.93;;;-3.40;99.90;;;;;;5011286;28;20235;-71
2021/01/15 09:07:41;;;;;;;13.33;6.50;;;-3.40;99.90;;;;;;5011066;28;20286;-73
2021/01/15 09:10:10;;;;;;;14.23;6.93;;;-3.40;99.90;;;;;;5010810;28;20586;-74
2021/01/15 09:12:41;;;;;;;15.77;7.37;;;-3.40;99.90;;;;;;5004941;28;20366;-73
2021/01/15 09:15:09;;;;;;;13.70;7.20;;;-3.40;99.90;;;;;;5015771;28;20223;-74
2021/01/15 09:17:36;;;;;;;13.83;7.87;;;-3.30;99.90;;;;;;5014604;28;20215;-77
2021/01/15 09:20:02;;;;;;;12.10;7.43;;;-3.30;99.90;;;;;;5015013;28;20249;-74
2021/01/15 09:22:30;;;;;;;13.30;8.30;;;-3.30;99.90;;;;;;5013766;28;20286;-74
2021/01/15 09:24:57;;;;;;;13.20;8.30;;;-3.40;99.90;;;;;;5026042;28;20215;-74
2021/01/15 09:27:24;;;;;;;14.77;8.77;;;-3.40;99.90;;;;;;5016238;28;20326;-75
2021/01/15 09:29:51;;;;;;;18.87;10.07;;;-3.40;99.90;;;;;;5016034;28;20269;-75
2021/01/15 09:32:17;;;;;;;19.67;9.60;;;-3.30;99.90;;;;;;5008987;28;20314;-74
2021/01/15 09:34:44;;;;;;;17.57;10.20;;;-3.30;99.90;;;;;;5013572;28;20223;-76
2021/01/15 09:37:11;;;;;;;17.03;10.10;;;-3.30;99.90;;;;;;5010960;28;20580;-75
2021/01/15 09:39:37;;;;;;;19.47;10.37;;;-3.30;99.90;;;;;;5008384;28;20641;-76
2021/01/15 09:42:05;;;;;;;22.07;10.63;;;-3.30;99.90;;;;;;5013432;28;20581;-74
2021/01/15 09:44:31;;;;;;;17.83;10.13;;;-3.30;99.90;;;;;;5010152;28;20240;-74
2021/01/15 09:47:00;;;;;;;24.10;10.00;;;-3.30;99.90;;;;;;5012564;28;20258;-76
2021/01/15 09:49:27;;;;;;;21.50;11.10;;;-3.20;99.90;;;;;;5004013;28;20664;-78
2021/01/15 09:51:54;;;;;;;17.60;10.10;;;-3.20;99.90;;;;;;5014370;28;20245;-72
2021/01/15 09:54:20;;;;;;;21.83;10.13;;;-3.00;99.90;;;;;;5017792;28;20220;-73
2021/01/15 09:56:47;;;;;;;17.13;9.97;;;-3.00;99.90;;;;;;5001345;28;20734;-74
2021/01/15 09:59:17;;;;;;;16.37;9.13;;;-2.90;99.90;;;;;;5013840;28;20206;-73
2021/01/15 10:01:45;;;;;;;20.90;10.03;;;-2.90;99.90;;;;;;5011394;28;20209;-74
2021/01/15 10:04:11;;;;;;;16.97;10.63;;;-3.00;99.90;;;;;;5012156;28;20656;-72
2021/01/15 10:06:39;;;;;;;21.80;10.97;;;-2.90;99.90;;;;;;5011307;28;20575;-74
2021/01/15 10:09:06;;;;;;;20.67;10.80;;;-2.90;99.90;;;;;;5010363;28;20214;-75
2021/01/15 10:11:35;;;;;;;26.03;11.00;;;-2.90;99.90;;;;;;5013617;28;20601;-74
2021/01/15 10:14:04;;;;;;;23.43;11.30;;;-2.80;99.90;;;;;;5009039;28;20251;-74
2021/01/15 10:16:31;;;;;;;20.47;10.63;;;-2.80;99.90;;;;;;5004798;28;20717;-73
2021/01/15 10:18:58;;;;;;;20.73;11.47;;;-2.80;99.90;;;;;;5013430;28;20656;-73
2021/01/15 10:21:27;;;;;;;20.03;10.87;;;-2.80;99.90;;;;;;5013169;28;20293;-75
2021/01/15 10:23:54;;;;;;;20.87;10.57;;;-2.70;99.90;;;;;;5011431;28;20295;-72
2021/01/15 10:26:22;;;;;;;22.50;11.03;;;-2.60;99.90;;;;;;5009606;28;20207;-72
2021/01/15 10:28:49;;;;;;;20.37;10.53;;;-2.60;99.90;;;;;;5019470;28;20226;-73
2021/01/15 10:31:15;;;;;;;22.63;10.37;;;-2.40;99.90;;;;;;5015499;28;20298;-74
2021/01/15 10:33:43;;;;;;;16.97;9.40;;;-2.30;99.90;;;;;;5015868;28;20214;-73
2021/01/15 10:36:10;;;;;;;17.93;10.17;;;-2.30;99.90;;;;;;5014601;28;20210;-73
2021/01/15 10:38:37;;;;;;;18.67;9.57;;;-2.20;99.90;;;;;;5012610;28;20298;-74
2021/01/15 10:41:04;;;;;;;17.40;10.00;;;-2.20;99.90;;;;;;5012105;28;20712;-73
2021/01/15 10:43:34;;;;;;;16.63;9.33;;;-2.10;99.90;;;;;;5006123;28;20208;-75
2021/01/15 10:46:00;;;;;;;19.53;10.10;;;-2.10;99.90;;;;;;5010419;28;20660;-72
2021/01/15 10:48:27;;;;;;;17.63;8.77;;;-2.00;99.90;;;;;;5012288;28;20297;-72
2021/01/15 10:50:55;;;;;;;15.63;8.73;;;-2.00;99.90;;;;;;5011774;28;20222;-73
2021/01/15 10:53:21;;;;;;;13.80;8.07;;;-1.90;99.90;;;;;;5009856;28;20256;-73
2021/01/15 10:55:48;;;;;;;13.50;8.53;;;-1.90;99.90;;;;;;5010185;28;20324;-72
2021/01/15 10:58:15;;;;;;;21.97;8.50;;;-1.90;99.90;;;;;;5024594;28;20916;-74
2021/01/15 11:00:41;;;;;;;20.83;9.17;;;-1.90;99.90;;;;;;5013414;28;20299;-72
2021/01/15 11:03:07;;;;;;;17.13;8.80;;;-1.90;99.90;;;;;;5013873;28;20268;-74
2021/01/15 11:05:37;;;;;;;17.30;8.93;;;-1.90;99.90;;;;;;5010497;28;20236;-73
2021/01/15 11:08:05;;;;;;;16.47;9.23;;;-2.00;99.90;;;;;;5011165;28;20219;-75
2021/01/15 11:10:32;;;;;;;16.20;9.10;;;-2.20;99.90;;;;;;5015011;28;20211;-74
2021/01/15 11:12:58;;;;;;;20.13;9.80;;;-2.20;99.90;;;;;;5010564;28;20261;-73
2021/01/15 11:15:25;;;;;;;17.00;9.20;;;-2.20;99.90;;;;;;5011812;28;20235;-73
2021/01/15 11:17:51;;;;;;;15.50;8.77;;;-2.30;99.90;;;;;;5015363;28;20310;-75
2021/01/15 11:20:19;;;;;;;17.73;8.53;;;-2.30;99.90;;;;;;5010787;28;20215;-74
2021/01/15 11:22:46;;;;;;;16.43;9.47;;;-2.30;99.90;;;;;;5011947;28;20615;-76
2021/01/15 11:25:15;;;;;;;19.53;8.67;;;-2.20;99.90;;;;;;5015953;28;20298;-75
2021/01/15 11:27:43;;;;;;;14.63;8.87;;;-2.30;99.90;;;;;;5008129;28;20210;-74
2021/01/15 11:30:10;;;;;;;19.70;9.50;;;-2.30;99.90;;;;;;5009273;28;20208;-77
2021/01/15 11:32:38;;;;;;;14.90;8.33;;;-2.40;99.90;;;;;;5013280;28;20208;-76
2021/01/15 11:35:06;;;;;;;17.00;8.20;;;-2.40;99.90;;;;;;5020076;28;20237;-76
2021/01/15 11:37:35;;;;;;;20.87;9.80;;;-2.50;99.90;;;;;;5011018;28;20217;-77
2021/01/15 11:40:04;;;;;;;16.83;9.03;;;-2.60;99.90;;;;;;5013664;28;20207;-76
2021/01/15 11:42:31;;;;;;;20.67;9.80;;;-2.60;99.90;;;;;;5010074;28;20225;-76
2021/01/15 11:44:58;;;;;;;17.10;8.63;;;-2.60;99.90;;;;;;5012630;28;20231;-75
2021/01/15 11:47:24;;;;;;;21.73;10.13;;;-2.10;99.90;;;;;;5009141;28;20757;-74
2021/01/15 11:49:51;;;;;;;20.77;9.67;;;-2.50;99.90;;;;;;5012566;28;20207;-71
2021/01/15 11:52:18;;;;;;;17.77;8.83;;;-2.50;99.90;;;;;;5013272;28;20211;-72
2021/01/15 11:54:44;;;;;;;19.13;9.87;;;-2.50;99.90;;;;;;5009907;28;20224;-70
2021/01/15 11:57:11;;;;;;;19.03;9.17;;;-2.50;99.90;;;;;;5014895;28;20211;-70
2021/01/15 11:59:38;;;;;;;16.63;9.83;;;-2.50;99.90;;;;;;5015047;28;20215;-69
2021/01/15 12:02:04;;;;;;;18.93;10.40;;;-2.50;99.90;;;;;;5010924;28;20306;-73
2021/01/15 12:04:31;;;;;;;20.43;9.97;;;-2.50;99.90;;;;;;5012768;28;20203;-71
2021/01/15 12:06:58;;;;;;;20.30;10.20;;;-2.50;99.90;;;;;;5011590;28;20785;-73
2021/01/15 12:09:24;;;;;;;17.80;9.67;;;-2.50;99.90;;;;;;5012711;28;20613;-75
2021/01/15 12:11:51;;;;;;;17.60;9.50;;;-2.40;99.90;;;;;;5014735;28;20223;-73
2021/01/15 12:14:17;;;;;;;18.30;9.37;;;-2.40;99.90;;;;;;5011426;28;20284;-72
2021/01/15 12:16:44;;;;;;;23.43;10.53;;;-2.40;99.90;;;;;;5015539;28;20635;-75
2021/01/15 12:19:11;;;;;;;18.10;10.20;;;-2.40;99.90;;;;;;5013131;28;20208;-73
2021/01/15 12:21:38;;;;;;;14.90;8.67;;;-2.40;99.90;;;;;;5015440;28;20208;-71
2021/01/15 12:24:05;;;;;;;16.03;8.60;;;-2.40;99.90;;;;;;5017800;28;20210;-72
2021/01/15 12:26:32;;;;;;;16.67;10.27;;;-2.40;99.90;;;;;;5020185;28;20214;-73
2021/01/15 12:28:58;;;;;;;18.07;9.13;;;-2.50;99.90;;;;;;5014347;28;20665;-71
2021/01/15 12:31:25;;;;;;;17.43;9.20;;;-2.50;99.90;;;;;;5014502;28;20626;-71
2021/01/15 12:33:52;;;;;;;18.63;9.57;;;-2.50;99.90;;;;;;5014526;28;20302;-71
2021/01/15 12:36:18;;;;;;;18.47;9.03;;;-2.50;99.90;;;;;;5013275;28;20208;-72
2021/01/15 12:38:45;;;;;;;21.00;9.47;;;-2.40;99.90;;;;;;5013710;28;20299;-72
2021/01/15 12:41:12;;;;;;;16.90;9.23;;;-2.50;99.90;;;;;;5013474;28;20281;-72
2021/01/15 12:43:40;;;;;;;18.77;9.53;;;-2.50;99.90;;;;;;5011451;28;20208;-72
2021/01/15 12:46:10;;;;;;;17.13;9.43;;;-2.60;99.90;;;;;;5015835;28;20649;-73
2021/01/15 12:48:36;;;;;;;19.87;9.00;;;-2.60;99.90;;;;;;5012817;28;20207;-72
2021/01/15 12:51:05;;;;;;;21.20;9.17;;;-2.50;99.90;;;;;;5012894;28;20225;-71